sensor_id;sensor_type;location;lat;lon;timestamp;pressure;altitude;pressure_sealevel;temperature;humidity
71559;BME280;59382;43.852;25.952;2023-08-12T00:00:19;101627.75;;;26.08;43.56
71559;BME280;59382;43.852;25.952;2023-08-12T00:02:45;101612.59;;;26.01;43.68
71559;BME280;59382;43.852;25.952;2023-08-12T00:05:12;101626.38;;;26.06;43.50
71559;BME280;59382;43.852;25.952;2023-08-12T00:07:39;101635.50;;;26.06;43.05
71559;BME280;59382;43.852;25.952;2023-08-12T00:10:07;101633.56;;;26.07;43.39
71559;BME280;59382;43.852;25.952;2023-08-12T00:12:34;101646.56;;;26.06;43.31
71559;BME280;59382;43.852;25.952;2023-08-12T00:15:00;101637.72;;;26.04;43.12
71559;BME280;59382;43.852;25.952;2023-08-12T00:17:26;101642.75;;;26.02;43.52
71559;BME280;59382;43.852;25.952;2023-08-12T00:19:52;101626.16;;;25.97;43.36
71559;BME280;59382;43.852;25.952;2023-08-12T00:22:17;101642.44;;;26.04;43.14
71559;BME280;59382;43.852;25.952;2023-08-12T00:24:43;101644.09;;;26.05;43.34
71559;BME280;59382;43.852;25.952;2023-08-12T00:27:10;101629.19;;;25.96;43.09
71559;BME280;59382;43.852;25.952;2023-08-12T00:29:35;101640.78;;;26.03;43.11
71559;BME280;59382;43.852;25.952;2023-08-12T00:32:02;101636.38;;;25.97;43.13
71559;BME280;59382;43.852;25.952;2023-08-12T00:34:27;101632.56;;;25.93;43.32
71559;BME280;59382;43.852;25.952;2023-08-12T00:36:53;101646.88;;;26.00;43.12
71559;BME280;59382;43.852;25.952;2023-08-12T00:39:18;101641.91;;;25.97;43.03
71559;BME280;59382;43.852;25.952;2023-08-12T00:41:44;101641.91;;;25.97;43.07
71559;BME280;59382;43.852;25.952;2023-08-12T00:44:10;101628.72;;;25.89;43.15
71559;BME280;59382;43.852;25.952;2023-08-12T00:46:36;101632.56;;;25.93;43.06
71559;BME280;59382;43.852;25.952;2023-08-12T00:49:04;101616.56;;;25.85;43.58
71559;BME280;59382;43.852;25.952;2023-08-12T00:51:29;101633.09;;;25.95;43.22
71559;BME280;59382;43.852;25.952;2023-08-12T00:53:58;101636.16;;;25.93;43.45
71559;BME280;59382;43.852;25.952;2023-08-12T00:56:23;101621.31;;;25.84;43.44
71559;BME280;59382;43.852;25.952;2023-08-12T00:58:49;101623.22;;;25.84;43.38
71559;BME280;59382;43.852;25.952;2023-08-12T01:01:15;101624.09;;;25.79;43.66
71559;BME280;59382;43.852;25.952;2023-08-12T01:03:43;101622.69;;;25.82;43.25
71559;BME280;59382;43.852;25.952;2023-08-12T01:06:08;101622.16;;;25.80;43.80
71559;BME280;59382;43.852;25.952;2023-08-12T01:08:35;101637.06;;;25.84;43.60
71559;BME280;59382;43.852;25.952;2023-08-12T01:11:14;101642.59;;;25.84;43.35
71559;BME280;59382;43.852;25.952;2023-08-12T01:13:46;101644.00;;;25.81;43.85
71559;BME280;59382;43.852;25.952;2023-08-12T01:16:16;101646.22;;;25.79;43.56
71559;BME280;59382;43.852;25.952;2023-08-12T01:18:43;101633.84;;;25.72;43.58
71559;BME280;59382;43.852;25.952;2023-08-12T01:21:12;101619.84;;;25.63;43.56
71559;BME280;59382;43.852;25.952;2023-08-12T01:23:41;101633.31;;;25.70;43.95
71559;BME280;59382;43.852;25.952;2023-08-12T01:26:06;101634.91;;;25.76;43.83
71559;BME280;59382;43.852;25.952;2023-08-12T01:28:32;101631.63;;;25.74;43.99
71559;BME280;59382;43.852;25.952;2023-08-12T01:33:37;101627.84;;;25.65;44.01
71559;BME280;59382;43.852;25.952;2023-08-12T01:36:16;101629.47;;;25.66;43.97
71559;BME280;59382;43.852;25.952;2023-08-12T01:38:43;101631.16;;;25.67;43.74
71559;BME280;59382;43.852;25.952;2023-08-12T01:41:10;101644.91;;;25.72;44.15
71559;BME280;59382;43.852;25.952;2023-08-12T01:43:38;101641.59;;;25.70;43.80
71559;BME280;59382;43.852;25.952;2023-08-12T01:46:03;101641.59;;;25.70;44.16
71559;BME280;59382;43.852;25.952;2023-08-12T01:48:29;101652.66;;;25.70;43.88
71559;BME280;59382;43.852;25.952;2023-08-12T01:50:54;101639.47;;;25.62;44.40
71559;BME280;59382;43.852;25.952;2023-08-12T01:53:20;101642.53;;;25.60;44.43
71559;BME280;59382;43.852;25.952;2023-08-12T01:55:45;101635.56;;;25.63;44.37
71559;BME280;59382;43.852;25.952;2023-08-12T01:58:11;101653.25;;;25.67;44.42
71559;BME280;59382;43.852;25.952;2023-08-12T02:00:37;101649.94;;;25.65;44.45
71559;BME280;59382;43.852;25.952;2023-08-12T02:03:03;101661.22;;;25.68;44.77
71559;BME280;59382;43.852;25.952;2023-08-12T02:05:28;101662.06;;;25.69;44.58
71559;BME280;59382;43.852;25.952;2023-08-12T02:07:54;101663.22;;;25.63;44.81
71559;BME280;59382;43.852;25.952;2023-08-12T02:10:19;101658.84;;;25.57;45.00
71559;BME280;59382;43.852;25.952;2023-08-12T02:12:45;101647.78;;;25.57;45.25
71559;BME280;59382;43.852;25.952;2023-08-12T02:15:11;101673.47;;;25.62;44.81
71559;BME280;59382;43.852;25.952;2023-08-12T02:17:36;101678.16;;;25.62;45.07
71559;BME280;59382;43.852;25.952;2023-08-12T02:20:02;101675.69;;;25.60;44.89
71559;BME280;59382;43.852;25.952;2023-08-12T02:22:29;101672.16;;;25.55;45.28
71559;BME280;59382;43.852;25.952;2023-08-12T02:24:54;101665.53;;;25.51;45.35
71559;BME280;59382;43.852;25.952;2023-08-12T02:27:20;101663.34;;;25.48;45.19
71559;BME280;59382;43.852;25.952;2023-08-12T02:29:45;101684.00;;;25.55;45.11
71559;BME280;59382;43.852;25.952;2023-08-12T02:32:11;101663.91;;;25.45;45.18
71559;BME280;59382;43.852;25.952;2023-08-12T02:34:36;101664.19;;;25.43;45.32
71559;BME280;59382;43.852;25.952;2023-08-12T02:37:02;101666.94;;;25.43;45.48
71559;BME280;59382;43.852;25.952;2023-08-12T02:39:27;101678.81;;;25.49;45.35
71559;BME280;59382;43.852;25.952;2023-08-12T02:41:53;101674.66;;;25.46;45.10
71559;BME280;59382;43.852;25.952;2023-08-12T02:44:19;101679.41;;;25.46;44.97
71559;BME280;59382;43.852;25.952;2023-08-12T02:46:44;101673.34;;;25.39;45.34
71559;BME280;59382;43.852;25.952;2023-08-12T02:49:10;101691.81;;;25.43;45.03
71559;BME280;59382;43.852;25.952;2023-08-12T02:51:35;101680.84;;;25.33;45.16
71559;BME280;59382;43.852;25.952;2023-08-12T02:54:01;101696.00;;;25.36;45.42
71559;BME280;59382;43.852;25.952;2023-08-12T02:56:27;101685.53;;;25.33;45.37
71559;BME280;59382;43.852;25.952;2023-08-12T02:58:53;101689.91;;;25.39;45.37
71559;BME280;59382;43.852;25.952;2023-08-12T03:01:18;101689.34;;;25.42;45.25
71559;BME280;59382;43.852;25.952;2023-08-12T03:03:44;101695.97;;;25.46;45.33
71559;BME280;59382;43.852;25.952;2023-08-12T03:06:10;101697.63;;;25.47;45.15
71559;BME280;59382;43.852;25.952;2023-08-12T03:08:35;101693.72;;;25.48;44.68
71559;BME280;59382;43.852;25.952;2023-08-12T03:11:02;101692.38;;;25.45;44.76
71559;BME280;59382;43.852;25.952;2023-08-12T03:13:28;101688.50;;;25.46;44.75
71559;BME280;59382;43.852;25.952;2023-08-12T03:15:54;101676.38;;;25.42;44.90
71559;BME280;59382;43.852;25.952;2023-08-12T03:18:20;101691.50;;;25.50;44.78
71559;BME280;59382;43.852;25.952;2023-08-12T03:20:46;101691.50;;;25.50;44.56
71559;BME280;59382;43.852;25.952;2023-08-12T03:23:11;101687.41;;;25.42;45.03
71559;BME280;59382;43.852;25.952;2023-08-12T03:25:37;101681.63;;;25.39;44.81
71559;BME280;59382;43.852;25.952;2023-08-12T03:28:03;101662.91;;;25.26;44.76
71559;BME280;59382;43.852;25.952;2023-08-12T03:30:28;101689.34;;;25.42;44.70
71559;BME280;59382;43.852;25.952;2023-08-12T03:32:54;101693.78;;;25.43;44.72
71559;BME280;59382;43.852;25.952;2023-08-12T03:35:19;101691.31;;;25.36;45.02
71559;BME280;59382;43.852;25.952;2023-08-12T03:37:45;101698.19;;;25.44;44.68
71559;BME280;59382;43.852;25.952;2023-08-12T03:40:10;101682.19;;;25.36;44.96
71559;BME280;59382;43.852;25.952;2023-08-12T03:42:36;101702.66;;;25.40;44.73
71559;BME280;59382;43.852;25.952;2023-08-12T03:45:02;101707.03;;;25.46;44.60
71559;BME280;59382;43.852;25.952;2023-08-12T03:47:27;101693.81;;;25.38;44.59
71559;BME280;59382;43.852;25.952;2023-08-12T03:49:53;101706.75;;;25.47;44.56
71559;BME280;59382;43.852;25.952;2023-08-12T03:52:18;101707.59;;;25.43;44.78
71559;BME280;59382;43.852;25.952;2023-08-12T03:54:44;101702.06;;;25.43;44.56
71559;BME280;59382;43.852;25.952;2023-08-12T03:57:10;101720.78;;;25.51;44.78
71559;BME280;59382;43.852;25.952;2023-08-12T03:59:36;101702.88;;;25.43;44.87
71559;BME280;59382;43.852;25.952;2023-08-12T04:02:01;101728.00;;;25.52;44.83
71559;BME280;59382;43.852;25.952;2023-08-12T04:04:29;101731.84;;;25.51;44.83
71559;BME280;59382;43.852;25.952;2023-08-12T04:06:55;101729.91;;;25.51;45.05
71559;BME280;59382;43.852;25.952;2023-08-12T04:09:20;101732.69;;;25.51;45.03
71559;BME280;59382;43.852;25.952;2023-08-12T04:11:46;101728.56;;;25.49;45.08
71559;BME280;59382;43.852;25.952;2023-08-12T04:14:15;101720.28;;;25.44;45.25
71559;BME280;59382;43.852;25.952;2023-08-12T04:16:41;101724.97;;;25.43;45.62
71559;BME280;59382;43.852;25.952;2023-08-12T04:19:06;101745.38;;;25.52;45.47
71559;BME280;59382;43.852;25.952;2023-08-12T04:21:32;101723.06;;;25.44;45.84
71559;BME280;59382;43.852;25.952;2023-08-12T04:23:57;101731.06;;;25.45;45.72
71559;BME280;59382;43.852;25.952;2023-08-12T04:26:23;101741.25;;;25.50;45.96
71559;BME280;59382;43.852;25.952;2023-08-12T04:28:49;101740.13;;;25.51;46.08
71559;BME280;59382;43.852;25.952;2023-08-12T04:31:14;101744.56;;;25.52;45.93
71559;BME280;59382;43.852;25.952;2023-08-12T04:33:40;101732.41;;;25.48;45.90
71559;BME280;59382;43.852;25.952;2023-08-12T04:36:06;101749.53;;;25.55;46.17
71559;BME280;59382;43.852;25.952;2023-08-12T04:38:31;101737.94;;;25.48;46.46
71559;BME280;59382;43.852;25.952;2023-08-12T04:40:57;101731.31;;;25.49;46.31
71559;BME280;59382;43.852;25.952;2023-08-12T04:43:22;101747.06;;;25.53;46.47
71559;BME280;59382;43.852;25.952;2023-08-12T04:45:48;101751.19;;;25.56;46.09
71559;BME280;59382;43.852;25.952;2023-08-12T04:48:14;101735.47;;;25.46;46.02
71559;BME280;59382;43.852;25.952;2023-08-12T04:50:41;101747.28;;;25.57;46.28
71559;BME280;59382;43.852;25.952;2023-08-12T04:53:06;101752.81;;;25.57;45.99
71559;BME280;59382;43.852;25.952;2023-08-12T04:55:32;101717.03;;;25.37;45.81
71559;BME280;59382;43.852;25.952;2023-08-12T04:57:58;101754.50;;;25.58;45.91
71559;BME280;59382;43.852;25.952;2023-08-12T05:00:23;101753.09;;;25.60;45.58
71559;BME280;59382;43.852;25.952;2023-08-12T05:02:49;101737.66;;;25.54;45.77
71559;BME280;59382;43.852;25.952;2023-08-12T05:05:15;101759.09;;;25.67;45.29
71559;BME280;59382;43.852;25.952;2023-08-12T05:07:40;101752.78;;;25.67;45.52
71559;BME280;59382;43.852;25.952;2023-08-12T05:10:06;101756.06;;;25.69;45.39
71559;BME280;59382;43.852;25.952;2023-08-12T05:12:32;101763.22;;;25.75;45.06
71559;BME280;59382;43.852;25.952;2023-08-12T05:14:57;101758.81;;;25.74;45.23
71559;BME280;59382;43.852;25.952;2023-08-12T05:17:23;101764.84;;;25.76;44.87
71559;BME280;59382;43.852;25.952;2023-08-12T05:19:48;101758.22;;;25.77;44.93
71559;BME280;59382;43.852;25.952;2023-08-12T05:22:15;101745.00;;;25.69;45.05
71559;BME280;59382;43.852;25.952;2023-08-12T05:24:41;101772.00;;;25.82;44.83
71559;BME280;59382;43.852;25.952;2023-08-12T05:27:06;101768.94;;;25.83;44.61
71559;BME280;59382;43.852;25.952;2023-08-12T05:29:32;101746.06;;;25.73;44.65
71559;BME280;59382;43.852;25.952;2023-08-12T05:31:58;101764.25;;;25.84;44.65
71559;BME280;59382;43.852;25.952;2023-08-12T05:34:23;101774.16;;;25.90;44.63
71559;BME280;59382;43.852;25.952;2023-08-12T05:36:48;101770.25;;;25.96;44.28
71559;BME280;59382;43.852;25.952;2023-08-12T05:39:14;101763.00;;;26.10;44.29
71559;BME280;59382;43.852;25.952;2023-08-12T05:41:41;101769.00;;;26.17;43.96
71559;BME280;59382;43.852;25.952;2023-08-12T05:44:07;101770.63;;;26.23;43.69
71559;BME280;59382;43.852;25.952;2023-08-12T05:46:33;101763.09;;;26.28;43.55
71559;BME280;59382;43.852;25.952;2023-08-12T05:48:58;101764.97;;;26.38;43.62
71559;BME280;59382;43.852;25.952;2023-08-12T05:51:24;101759.06;;;26.44;43.49
71559;BME280;59382;43.852;25.952;2023-08-12T05:53:49;101737.75;;;26.45;43.30
71559;BME280;59382;43.852;25.952;2023-08-12T05:56:15;101769.59;;;26.71;43.14
71559;BME280;59382;43.852;25.952;2023-08-12T05:58:40;101754.09;;;26.75;42.98
71559;BME280;59382;43.852;25.952;2023-08-12T06:01:06;101764.41;;;26.93;42.81
71559;BME280;59382;43.852;25.952;2023-08-12T06:03:32;101766.06;;;27.13;42.46
71559;BME280;59382;43.852;25.952;2023-08-12T06:05:57;101735.91;;;27.11;41.84
71559;BME280;59382;43.852;25.952;2023-08-12T06:08:22;101761.53;;;27.45;41.62
71559;BME280;59382;43.852;25.952;2023-08-12T06:10:48;101761.31;;;27.60;41.58
71559;BME280;59382;43.852;25.952;2023-08-12T06:13:13;101756.81;;;27.83;41.24
71559;BME280;59382;43.852;25.952;2023-08-12T06:15:39;101747.78;;;27.96;40.92
71559;BME280;59382;43.852;25.952;2023-08-12T06:18:05;101750.13;;;28.21;40.43
71559;BME280;59382;43.852;25.952;2023-08-12T06:20:30;101753.50;;;28.50;40.01
71559;BME280;59382;43.852;25.952;2023-08-12T06:22:56;101754.75;;;28.71;40.12
71559;BME280;59382;43.852;25.952;2023-08-12T06:25:22;101765.69;;;28.95;39.48
71559;BME280;59382;43.852;25.952;2023-08-12T06:27:47;101739.44;;;29.01;39.12
71559;BME280;59382;43.852;25.952;2023-08-12T06:30:13;101737.91;;;29.22;38.87
71559;BME280;59382;43.852;25.952;2023-08-12T06:32:39;101727.81;;;29.26;38.52
71559;BME280;59382;43.852;25.952;2023-08-12T06:35:05;101754.72;;;29.52;37.96
71559;BME280;59382;43.852;25.952;2023-08-12T06:37:31;101752.97;;;29.70;37.83
71559;BME280;59382;43.852;25.952;2023-08-12T06:39:57;101741.50;;;29.85;37.82
71559;BME280;59382;43.852;25.952;2023-08-12T06:42:23;101745.53;;;30.01;36.71
71559;BME280;59382;43.852;25.952;2023-08-12T06:44:56;101757.66;;;30.05;36.80
71559;BME280;59382;43.852;25.952;2023-08-12T06:47:22;101749.84;;;30.07;36.75
71559;BME280;59382;43.852;25.952;2023-08-12T06:49:47;101745.28;;;30.11;36.41
71559;BME280;59382;43.852;25.952;2023-08-12T06:52:13;101752.06;;;30.18;36.63
71559;BME280;59382;43.852;25.952;2023-08-12T06:54:39;101754.41;;;30.25;36.16
71559;BME280;59382;43.852;25.952;2023-08-12T06:57:04;101755.16;;;30.39;35.84
71559;BME280;59382;43.852;25.952;2023-08-12T06:59:30;101755.47;;;30.37;35.37
71559;BME280;59382;43.852;25.952;2023-08-12T07:01:55;101748.06;;;30.33;35.43
71559;BME280;59382;43.852;25.952;2023-08-12T07:04:21;101755.94;;;30.31;35.61
71559;BME280;59382;43.852;25.952;2023-08-12T07:06:47;101748.69;;;30.30;35.75
71559;BME280;59382;43.852;25.952;2023-08-12T07:09:13;101754.47;;;30.33;35.57
71559;BME280;59382;43.852;25.952;2023-08-12T07:11:39;101745.78;;;30.35;35.47
71559;BME280;59382;43.852;25.952;2023-08-12T07:14:05;101750.56;;;30.43;35.12
71559;BME280;59382;43.852;25.952;2023-08-12T07:16:30;101741.59;;;30.46;35.03
71559;BME280;59382;43.852;25.952;2023-08-12T07:18:56;101753.47;;;30.60;35.10
71559;BME280;59382;43.852;25.952;2023-08-12T07:21:21;101738.38;;;30.61;35.12
71559;BME280;59382;43.852;25.952;2023-08-12T07:23:47;101746.97;;;30.73;34.46
71559;BME280;59382;43.852;25.952;2023-08-12T07:26:12;101740.13;;;30.79;35.04
71559;BME280;59382;43.852;25.952;2023-08-12T07:28:38;101734.56;;;30.79;35.15
71559;BME280;59382;43.852;25.952;2023-08-12T07:31:03;101735.09;;;30.90;34.83
71559;BME280;59382;43.852;25.952;2023-08-12T07:33:29;101732.13;;;30.86;34.60
71559;BME280;59382;43.852;25.952;2023-08-12T07:35:55;101748.41;;;31.01;34.87
71559;BME280;59382;43.852;25.952;2023-08-12T07:38:20;101737.09;;;30.98;34.25
71559;BME280;59382;43.852;25.952;2023-08-12T07:40:46;101729.22;;;31.00;34.79
71559;BME280;59382;43.852;25.952;2023-08-12T07:43:11;101726.09;;;31.01;34.44
71559;BME280;59382;43.852;25.952;2023-08-12T07:45:37;101731.22;;;30.99;34.75
71559;BME280;59382;43.852;25.952;2023-08-12T07:48:03;101742.50;;;31.03;34.87
71559;BME280;59382;43.852;25.952;2023-08-12T07:50:29;101727.06;;;30.88;34.48
71559;BME280;59382;43.852;25.952;2023-08-12T07:52:55;101737.84;;;30.81;35.09
71559;BME280;59382;43.852;25.952;2023-08-12T07:55:20;101731.41;;;30.72;34.67
71559;BME280;59382;43.852;25.952;2023-08-12T07:57:46;101731.00;;;30.57;34.77
71559;BME280;59382;43.852;25.952;2023-08-12T08:00:11;101743.09;;;30.52;34.99
71559;BME280;59382;43.852;25.952;2023-08-12T08:02:38;101741.47;;;30.51;34.82
71559;BME280;59382;43.852;25.952;2023-08-12T08:05:04;101726.88;;;30.54;34.93
71559;BME280;59382;43.852;25.952;2023-08-12T08:07:30;101731.72;;;30.71;35.07
71559;BME280;59382;43.852;25.952;2023-08-12T08:09:55;101731.28;;;30.77;35.07
71559;BME280;59382;43.852;25.952;2023-08-12T08:12:21;101714.38;;;30.74;34.39
71559;BME280;59382;43.852;25.952;2023-08-12T08:14:46;101729.00;;;30.79;34.50
71559;BME280;59382;43.852;25.952;2023-08-12T08:17:12;101731.13;;;30.82;34.70
71559;BME280;59382;43.852;25.952;2023-08-12T08:19:37;101733.47;;;30.89;34.53
71559;BME280;59382;43.852;25.952;2023-08-12T08:22:03;101718.69;;;30.88;34.56
71559;BME280;59382;43.852;25.952;2023-08-12T08:24:29;101720.50;;;30.84;34.22
71559;BME280;59382;43.852;25.952;2023-08-12T08:26:54;101719.09;;;30.73;34.66
71559;BME280;59382;43.852;25.952;2023-08-12T08:29:21;101717.91;;;30.66;34.84
71559;BME280;59382;43.852;25.952;2023-08-12T08:31:46;101720.78;;;30.74;34.66
71559;BME280;59382;43.852;25.952;2023-08-12T08:34:12;101733.44;;;30.80;34.25
71559;BME280;59382;43.852;25.952;2023-08-12T08:36:38;101727.88;;;30.80;34.59
71559;BME280;59382;43.852;25.952;2023-08-12T08:39:06;101707.34;;;30.76;34.75
71559;BME280;59382;43.852;25.952;2023-08-12T08:41:37;101714.56;;;30.77;34.29
71559;BME280;59382;43.852;25.952;2023-08-12T08:44:06;101718.84;;;30.83;34.37
71559;BME280;59382;43.852;25.952;2023-08-12T08:46:33;101718.69;;;30.88;34.27
71559;BME280;59382;43.852;25.952;2023-08-12T08:48:59;101715.25;;;30.91;34.29
71559;BME280;59382;43.852;25.952;2023-08-12T08:51:30;101700.47;;;30.82;33.99
71559;BME280;59382;43.852;25.952;2023-08-12T08:53:56;101691.22;;;30.73;34.17
71559;BME280;59382;43.852;25.952;2023-08-12T08:56:22;101712.91;;;30.76;34.19
71559;BME280;59382;43.852;25.952;2023-08-12T08:58:52;101683.31;;;30.58;34.40
71559;BME280;59382;43.852;25.952;2023-08-12T09:01:21;101692.19;;;30.60;34.65
71559;BME280;59382;43.852;25.952;2023-08-12T09:03:50;101675.75;;;30.50;34.42
71559;BME280;59382;43.852;25.952;2023-08-12T09:06:20;101696.59;;;30.61;34.61
71559;BME280;59382;43.852;25.952;2023-08-12T09:08:48;101696.75;;;30.56;34.59
71559;BME280;59382;43.852;25.952;2023-08-12T09:11:17;101689.38;;;30.52;34.48
71559;BME280;59382;43.852;25.952;2023-08-12T09:13:50;101693.13;;;30.47;34.56
71559;BME280;59382;43.852;25.952;2023-08-12T09:16:16;101680.94;;;30.43;35.31
71559;BME280;59382;43.852;25.952;2023-08-12T09:18:43;101679.66;;;30.49;35.02
71559;BME280;59382;43.852;25.952;2023-08-12T09:21:09;101689.72;;;30.59;34.90
71559;BME280;59382;43.852;25.952;2023-08-12T09:23:38;101688.44;;;30.65;34.96
71559;BME280;59382;43.852;25.952;2023-08-12T09:26:21;101687.91;;;30.63;34.47
71559;BME280;59382;43.852;25.952;2023-08-12T09:28:55;101677.72;;;30.58;34.42
71559;BME280;59382;43.852;25.952;2023-08-12T09:33:48;101682.31;;;30.54;34.63
71559;BME280;59382;43.852;25.952;2023-08-12T09:36:15;101670.00;;;30.47;34.76
71559;BME280;59382;43.852;25.952;2023-08-12T09:38:44;101671.47;;;30.44;34.50
71559;BME280;59382;43.852;25.952;2023-08-12T09:41:10;101672.47;;;30.48;34.43
71559;BME280;59382;43.852;25.952;2023-08-12T09:43:43;101649.81;;;30.41;34.55
71559;BME280;59382;43.852;25.952;2023-08-12T09:46:12;101674.63;;;30.60;34.45
71559;BME280;59382;43.852;25.952;2023-08-12T09:48:41;101637.41;;;30.47;34.50
71559;BME280;59382;43.852;25.952;2023-08-12T09:51:07;101658.59;;;30.65;34.00
71559;BME280;59382;43.852;25.952;2023-08-12T09:53:34;101655.81;;;30.65;33.92
71559;BME280;59382;43.852;25.952;2023-08-12T09:56:07;101653.91;;;30.74;33.82
71559;BME280;59382;43.852;25.952;2023-08-12T09:58:33;101655.88;;;30.82;34.12
71559;BME280;59382;43.852;25.952;2023-08-12T10:01:02;101648.69;;;30.81;34.12
71559;BME280;59382;43.852;25.952;2023-08-12T10:03:29;101634.72;;;30.73;33.77
71559;BME280;59382;43.852;25.952;2023-08-12T10:05:56;101648.97;;;30.71;33.57
71559;BME280;59382;43.852;25.952;2023-08-12T10:08:22;101634.81;;;30.59;33.95
71559;BME280;59382;43.852;25.952;2023-08-12T10:10:48;101634.97;;;30.54;34.17
71559;BME280;59382;43.852;25.952;2023-08-12T10:13:14;101635.94;;;30.50;33.57
71559;BME280;59382;43.852;25.952;2023-08-12T10:15:40;101638.03;;;30.44;33.84
71559;BME280;59382;43.852;25.952;2023-08-12T10:18:07;101628.97;;;30.30;34.21
71559;BME280;59382;43.852;25.952;2023-08-12T10:20:35;101626.47;;;30.20;34.13
71559;BME280;59382;43.852;25.952;2023-08-12T10:23:02;101633.66;;;30.21;34.22
71559;BME280;59382;43.852;25.952;2023-08-12T10:25:31;101625.81;;;30.23;34.35
71559;BME280;59382;43.852;25.952;2023-08-12T10:27:57;101624.19;;;30.22;34.51
71559;BME280;59382;43.852;25.952;2023-08-12T10:30:23;101619.63;;;30.26;34.16
71559;BME280;59382;43.852;25.952;2023-08-12T10:32:49;101605.63;;;30.17;34.16
71559;BME280;59382;43.852;25.952;2023-08-12T10:35:15;101600.38;;;30.16;34.07
71559;BME280;59382;43.852;25.952;2023-08-12T10:37:40;101609.44;;;30.21;33.58
71559;BME280;59382;43.852;25.952;2023-08-12T10:40:20;101618.63;;;30.22;33.48
71559;BME280;59382;43.852;25.952;2023-08-12T10:42:47;101624.63;;;30.15;33.57
71559;BME280;59382;43.852;25.952;2023-08-12T10:45:15;101601.78;;;30.05;33.83
71559;BME280;59382;43.852;25.952;2023-08-12T10:47:42;101609.00;;;30.06;34.07
71559;BME280;59382;43.852;25.952;2023-08-12T10:50:25;101605.72;;;30.04;33.81
71559;BME280;59382;43.852;25.952;2023-08-12T10:52:52;101611.31;;;30.04;33.63
71559;BME280;59382;43.852;25.952;2023-08-12T10:55:22;101600.16;;;30.04;34.10
71559;BME280;59382;43.852;25.952;2023-08-12T10:57:49;101602.63;;;30.05;33.83
71559;BME280;59382;43.852;25.952;2023-08-12T11:00:26;101589.03;;;30.04;34.32
71559;BME280;59382;43.852;25.952;2023-08-12T11:02:52;101598.41;;;30.16;33.73
71559;BME280;59382;43.852;25.952;2023-08-12T11:05:18;101592.34;;;30.14;33.63
71559;BME280;59382;43.852;25.952;2023-08-12T11:07:46;101599.88;;;30.14;33.03
71559;BME280;59382;43.852;25.952;2023-08-12T11:10:15;101585.09;;;30.05;33.42
71559;BME280;59382;43.852;25.952;2023-08-12T11:13:02;101597.22;;;30.09;33.60
71559;BME280;59382;43.852;25.952;2023-08-12T11:15:33;101591.97;;;30.07;33.45
71559;BME280;59382;43.852;25.952;2023-08-12T11:18:02;101587.38;;;30.03;33.14
71559;BME280;59382;43.852;25.952;2023-08-12T11:20:31;101572.97;;;30.01;33.09
71559;BME280;59382;43.852;25.952;2023-08-12T11:22:57;101580.16;;;30.02;33.09
71559;BME280;59382;43.852;25.952;2023-08-12T11:25:29;101580.81;;;29.99;32.96
71559;BME280;59382;43.852;25.952;2023-08-12T11:27:55;101587.38;;;30.03;33.56
71559;BME280;59382;43.852;25.952;2023-08-12T11:30:22;101585.09;;;30.05;32.95
71559;BME280;59382;43.852;25.952;2023-08-12T11:32:53;101576.88;;;30.00;32.75
71559;BME280;59382;43.852;25.952;2023-08-12T11:35:20;101586.38;;;29.99;33.10
71559;BME280;59382;43.852;25.952;2023-08-12T11:37:47;101575.88;;;29.96;32.91
71559;BME280;59382;43.852;25.952;2023-08-12T11:40:15;101574.88;;;29.92;32.93
71559;BME280;59382;43.852;25.952;2023-08-12T11:42:50;101574.88;;;29.92;32.99
71559;BME280;59382;43.852;25.952;2023-08-12T11:45:21;101567.31;;;29.84;32.48
71559;BME280;59382;43.852;25.952;2023-08-12T11:47:47;101555.19;;;29.80;32.94
71559;BME280;59382;43.852;25.952;2023-08-12T11:50:18;101559.00;;;29.92;32.63
71559;BME280;59382;43.852;25.952;2023-08-12T11:52:45;101564.75;;;29.96;32.70
71559;BME280;59382;43.852;25.952;2023-08-12T11:55:12;101564.94;;;29.99;32.71
71559;BME280;59382;43.852;25.952;2023-08-12T11:57:39;101564.31;;;30.02;32.66
71559;BME280;59382;43.852;25.952;2023-08-12T12:00:07;101553.63;;;29.96;32.44
71559;BME280;59382;43.852;25.952;2023-08-12T12:02:47;101559.06;;;30.01;32.29
71559;BME280;59382;43.852;25.952;2023-08-12T12:05:14;101551.16;;;29.94;32.46
71559;BME280;59382;43.852;25.952;2023-08-12T12:07:42;101554.78;;;29.95;32.60
71559;BME280;59382;43.852;25.952;2023-08-12T12:10:13;101557.91;;;30.02;32.54
71559;BME280;59382;43.852;25.952;2023-08-12T12:12:39;101561.53;;;30.02;32.11
71559;BME280;59382;43.852;25.952;2023-08-12T12:15:04;101545.59;;;29.94;31.80
71559;BME280;59382;43.852;25.952;2023-08-12T12:17:31;101560.03;;;29.96;31.40
71559;BME280;59382;43.852;25.952;2023-08-12T12:19:59;101550.97;;;29.91;31.22
71559;BME280;59382;43.852;25.952;2023-08-12T12:22:28;101506.03;;;29.67;31.27
71559;BME280;59382;43.852;25.952;2023-08-12T12:24:59;101537.06;;;29.91;31.67
71559;BME280;59382;43.852;25.952;2023-08-12T12:27:26;101509.69;;;29.76;31.65
71559;BME280;59382;43.852;25.952;2023-08-12T12:29:53;101531.34;;;29.96;31.74
71559;BME280;59382;43.852;25.952;2023-08-12T12:32:19;101535.97;;;30.00;31.70
71559;BME280;59382;43.852;25.952;2023-08-12T12:34:45;101535.13;;;30.00;31.84
71559;BME280;59382;43.852;25.952;2023-08-12T12:37:12;101521.22;;;30.00;31.55
71559;BME280;59382;43.852;25.952;2023-08-12T12:39:38;101520.56;;;30.03;31.60
71559;BME280;59382;43.852;25.952;2023-08-12T12:42:05;101526.66;;;30.05;31.31